Time;durP1;ratioP1;P1;durP2;ratioP2;P2;SDS_P1;SDS_P2;PMS_P1;PMS_P2;Temp;Humidity;BMP_temperature;BMP_pressure;BME280_temperature;BME280_humidity;BME280_pressure;Samples;Min_cycle;Max_cycle;Signal;HPM_P1;HPM_P2
2023/12/15 00:01:59;;;;;;;5.38;4.82;;;7.50;99.90;;;;;;5054679;28;20159;-65
2023/12/15 00:04:25;;;;;;;5.22;4.63;;;7.50;99.90;;;;;;5054423;28;20521;-65
2023/12/15 00:06:50;;;;;;;5.63;4.03;;;7.50;99.90;;;;;;5054771;28;20083;-64
2023/12/15 00:09:19;;;;;;;5.00;3.95;;;7.40;99.90;;;;;;5054194;28;20040;-64
2023/12/15 00:11:44;;;;;;;4.82;3.78;;;7.40;99.90;;;;;;5054696;28;20059;-64
2023/12/15 00:14:10;;;;;;;6.78;3.85;;;7.40;99.90;;;;;;5053904;28;20037;-65
2023/12/15 00:16:36;;;;;;;6.00;4.35;;;7.40;99.90;;;;;;5054306;28;20389;-65
2023/12/15 00:19:02;;;;;;;5.82;4.10;;;7.40;99.90;;;;;;5054267;28;20024;-65
2023/12/15 00:21:28;;;;;;;4.95;3.90;;;7.40;99.90;;;;;;5053916;28;20037;-66
2023/12/15 00:23:55;;;;;;;6.35;4.65;;;7.40;99.90;;;;;;5054515;28;20346;-64
2023/12/15 00:26:20;;;;;;;5.10;4.00;;;7.40;99.90;;;;;;5053861;28;20098;-64
2023/12/15 00:28:46;;;;;;;6.00;4.00;;;7.40;99.90;;;;;;5053947;28;20537;-64
2023/12/15 00:31:11;;;;;;;5.47;4.18;;;7.40;99.90;;;;;;5053750;28;20033;-64
2023/12/15 00:33:37;;;;;;;5.30;3.95;;;7.40;99.90;;;;;;5054768;28;20051;-65
2023/12/15 00:36:03;;;;;;;4.43;3.78;;;7.40;99.90;;;;;;5054173;28;20082;-65
2023/12/15 00:38:29;;;;;;;4.45;3.63;;;7.40;99.90;;;;;;5054077;28;20078;-64
2023/12/15 00:40:54;;;;;;;4.97;4.07;;;7.40;99.90;;;;;;5054125;28;20112;-64
2023/12/15 00:43:20;;;;;;;6.38;4.00;;;7.40;99.90;;;;;;5053263;28;20041;-64
2023/12/15 00:45:45;;;;;;;5.10;4.00;;;7.40;99.90;;;;;;5054307;28;20393;-64
2023/12/15 00:48:11;;;;;;;5.25;4.00;;;7.40;99.90;;;;;;5053698;28;20386;-64
2023/12/15 00:50:37;;;;;;;4.88;3.70;;;7.40;99.90;;;;;;5054291;28;20056;-64
2023/12/15 00:53:02;;;;;;;5.20;4.07;;;7.30;99.90;;;;;;5054023;28;20032;-64
2023/12/15 00:55:28;;;;;;;5.85;4.15;;;7.30;99.90;;;;;;5069774;28;20108;-65
2023/12/15 00:57:53;;;;;;;4.78;3.17;;;7.30;99.90;;;;;;5067846;28;20035;-64
2023/12/15 01:00:19;;;;;;;5.47;3.78;;;7.30;99.90;;;;;;5052845;28;20064;-65
2023/12/15 01:02:45;;;;;;;5.30;3.58;;;7.30;99.90;;;;;;5052312;28;20470;-65
2023/12/15 01:05:11;;;;;;;5.40;3.90;;;7.30;99.90;;;;;;5053232;28;20047;-65
2023/12/15 01:07:36;;;;;;;4.68;3.67;;;7.30;99.90;;;;;;5053613;28;20028;-63
2023/12/15 01:10:02;;;;;;;4.22;3.25;;;7.30;99.90;;;;;;5053629;28;20021;-64
2023/12/15 01:12:28;;;;;;;4.68;3.90;;;7.20;99.90;;;;;;5053007;28;20099;-65
2023/12/15 01:14:53;;;;;;;5.47;3.78;;;7.20;99.90;;;;;;5053283;28;20466;-64
2023/12/15 01:17:19;;;;;;;5.35;4.10;;;7.20;99.90;;;;;;5052936;28;20450;-64
2023/12/15 01:19:45;;;;;;;4.93;3.60;;;7.20;99.90;;;;;;5053416;28;20025;-64
2023/12/15 01:22:10;;;;;;;4.97;3.28;;;7.20;99.90;;;;;;5053156;28;20025;-65
2023/12/15 01:24:36;;;;;;;5.50;3.10;;;7.20;99.90;;;;;;5052835;28;20033;-65
2023/12/15 01:27:01;;;;;;;5.82;2.90;;;7.20;99.90;;;;;;5053153;28;20472;-65
2023/12/15 01:29:27;;;;;;;4.43;3.10;;;7.20;99.90;;;;;;5052686;28;20039;-65
2023/12/15 01:31:52;;;;;;;4.80;3.28;;;7.20;99.90;;;;;;5052973;28;20065;-64
2023/12/15 01:34:18;;;;;;;3.42;2.60;;;7.20;99.90;;;;;;5052414;28;20036;-64
2023/12/15 01:36:44;;;;;;;3.58;2.90;;;7.20;99.90;;;;;;5053053;28;20041;-64
2023/12/15 01:39:09;;;;;;;3.38;2.63;;;7.20;99.90;;;;;;5053111;28;20143;-65
2023/12/15 01:41:35;;;;;;;2.92;2.58;;;7.20;99.90;;;;;;5052277;28;20094;-64
2023/12/15 01:44:01;;;;;;;3.25;2.40;;;7.20;99.90;;;;;;5052254;28;20491;-64
2023/12/15 01:46:27;;;;;;;3.60;2.60;;;7.10;99.90;;;;;;5052339;28;20037;-65
2023/12/15 01:48:52;;;;;;;4.75;2.70;;;7.10;99.90;;;;;;5052772;28;20025;-65
2023/12/15 01:51:18;;;;;;;3.22;2.90;;;7.10;99.90;;;;;;5051994;28;20087;-65
2023/12/15 01:53:44;;;;;;;3.38;3.08;;;7.10;99.90;;;;;;5052961;28;20025;-65
2023/12/15 01:56:10;;;;;;;6.32;3.00;;;7.10;99.90;;;;;;5052547;28;20032;-64
2023/12/15 01:58:36;;;;;;;5.72;2.42;;;7.10;99.90;;;;;;5051831;28;20057;-64
2023/12/15 02:01:01;;;;;;;4.43;2.85;;;7.10;99.90;;;;;;5052504;28;20118;-65
2023/12/15 02:03:27;;;;;;;3.80;3.30;;;7.10;99.90;;;;;;5051850;28;20055;-65
2023/12/15 02:05:52;;;;;;;3.92;2.63;;;7.10;99.90;;;;;;5052552;28;20024;-64
2023/12/15 02:08:18;;;;;;;3.40;2.92;;;7.00;99.90;;;;;;5052003;28;20492;-65
2023/12/15 02:10:44;;;;;;;3.45;2.47;;;7.00;99.90;;;;;;5052318;28;20032;-64
2023/12/15 02:13:09;;;;;;;3.67;3.00;;;7.00;99.90;;;;;;5051884;28;20477;-64
2023/12/15 02:15:35;;;;;;;3.40;2.85;;;7.00;99.90;;;;;;5051802;28;20028;-64
2023/12/15 02:18:02;;;;;;;4.95;3.33;;;7.00;99.90;;;;;;5052063;28;20463;-64
2023/12/15 02:20:27;;;;;;;3.40;2.85;;;7.00;99.90;;;;;;5051785;28;20025;-64
2023/12/15 02:22:53;;;;;;;4.43;3.25;;;6.90;99.90;;;;;;5052043;28;20101;-64
2023/12/15 02:25:18;;;;;;;3.35;2.85;;;7.00;99.90;;;;;;5051675;28;20028;-64
2023/12/15 02:27:44;;;;;;;4.05;3.42;;;6.90;99.90;;;;;;5051730;28;20528;-65
2023/12/15 02:30:10;;;;;;;5.50;2.63;;;7.00;99.90;;;;;;5051776;28;20025;-64
2023/12/15 02:32:35;;;;;;;4.22;2.90;;;6.90;99.90;;;;;;5051549;28;20033;-65
2023/12/15 02:35:01;;;;;;;4.93;3.65;;;7.00;99.90;;;;;;5051615;28;20469;-65
2023/12/15 02:37:27;;;;;;;4.03;2.78;;;6.90;99.90;;;;;;5051249;28;20461;-65
2023/12/15 02:39:53;;;;;;;5.68;3.15;;;6.90;99.90;;;;;;5051592;28;20071;-65
2023/12/15 02:42:19;;;;;;;4.70;3.08;;;6.90;99.90;;;;;;5051529;28;20039;-65
2023/12/15 02:44:45;;;;;;;3.22;2.80;;;6.90;99.90;;;;;;5051661;28;20055;-65
2023/12/15 02:47:11;;;;;;;4.35;3.00;;;6.90;99.90;;;;;;5051587;28;20041;-64
2023/12/15 02:49:39;;;;;;;3.65;2.90;;;7.00;99.90;;;;;;5051431;28;20032;-65
2023/12/15 02:52:04;;;;;;;5.05;3.55;;;6.90;99.90;;;;;;5051886;28;20036;-65
2023/12/15 02:54:30;;;;;;;4.03;3.22;;;6.90;99.90;;;;;;5052718;28;20489;-64
2023/12/15 02:56:55;;;;;;;4.95;3.13;;;6.90;99.90;;;;;;5055783;28;20203;-65
2023/12/15 02:59:21;;;;;;;3.45;2.80;;;6.90;99.90;;;;;;5055463;28;20053;-65
2023/12/15 03:01:47;;;;;;;3.80;2.70;;;6.80;99.90;;;;;;5055835;28;20115;-64
2023/12/15 03:04:12;;;;;;;8.07;3.10;;;6.80;99.90;;;;;;5054621;28;20020;-65
2023/12/15 03:06:38;;;;;;;3.80;2.97;;;6.80;99.90;;;;;;5075010;28;20059;-65
2023/12/15 03:09:03;;;;;;;3.55;2.60;;;6.80;99.90;;;;;;5075400;28;20029;-65
2023/12/15 03:11:29;;;;;;;4.00;3.28;;;6.80;99.90;;;;;;5075449;28;20024;-65
2023/12/15 03:13:55;;;;;;;3.58;2.95;;;6.80;99.90;;;;;;5075675;28;20134;-64
2023/12/15 03:16:23;;;;;;;3.03;2.72;;;6.70;99.90;;;;;;5075592;28;20079;-64
2023/12/15 03:18:48;;;;;;;3.15;2.28;;;6.70;99.90;;;;;;5075572;28;20060;-64
2023/12/15 03:21:14;;;;;;;2.70;2.47;;;6.70;99.90;;;;;;5075376;28;20462;-64
2023/12/15 03:23:40;;;;;;;3.83;2.30;;;6.60;99.90;;;;;;5074674;28;20033;-64
2023/12/15 03:26:06;;;;;;;3.85;2.45;;;6.60;99.90;;;;;;5075292;28;20036;-64
2023/12/15 03:28:32;;;;;;;2.88;2.25;;;6.60;99.90;;;;;;5075174;28;20121;-65
2023/12/15 03:30:57;;;;;;;4.30;2.30;;;6.50;99.90;;;;;;5074869;28;20477;-64
2023/12/15 03:33:33;;;;;;;2.90;2.35;;;6.50;99.90;;;;;;5075488;28;20107;-65
2023/12/15 03:35:58;;;;;;;3.63;2.65;;;6.50;99.90;;;;;;5075113;28;20377;-65
2023/12/15 03:38:24;;;;;;;3.85;2.22;;;6.50;99.90;;;;;;5075293;28;20031;-66
2023/12/15 03:40:49;;;;;;;2.13;1.88;;;6.40;99.90;;;;;;5074853;28;20029;-64
2023/12/15 03:43:15;;;;;;;2.63;1.90;;;6.40;99.90;;;;;;5075015;28;20051;-65
2023/12/15 03:45:41;;;;;;;2.78;1.90;;;6.40;99.90;;;;;;5074382;28;20035;-63
2023/12/15 03:48:06;;;;;;;2.85;2.13;;;6.40;99.90;;;;;;5074994;28;20032;-64
2023/12/15 03:50:32;;;;;;;2.40;1.90;;;6.40;99.90;;;;;;5074553;28;20118;-64
2023/12/15 03:52:58;;;;;;;2.75;2.20;;;6.30;99.90;;;;;;5074695;28;20033;-64
2023/12/15 03:55:24;;;;;;;2.15;1.65;;;6.30;99.90;;;;;;5074621;28;20040;-64
2023/12/15 03:57:50;;;;;;;2.78;1.65;;;6.30;99.90;;;;;;5074226;28;20032;-65
2023/12/15 04:00:16;;;;;;;3.25;1.70;;;6.30;99.90;;;;;;5074802;28;20049;-65
2023/12/15 04:02:43;;;;;;;2.65;1.83;;;6.30;99.90;;;;;;5073941;28;20052;-65
2023/12/15 04:05:08;;;;;;;2.28;1.63;;;6.30;99.90;;;;;;5073986;28;20132;-64
2023/12/15 04:07:34;;;;;;;2.33;1.63;;;6.30;99.90;;;;;;5074091;28;20526;-65
2023/12/15 04:10:00;;;;;;;2.10;1.90;;;6.30;99.90;;;;;;5074324;28;20028;-64
2023/12/15 04:12:25;;;;;;;1.70;1.38;;;6.30;99.90;;;;;;5074586;28;20028;-65
2023/12/15 04:14:51;;;;;;;2.50;1.75;;;6.30;99.90;;;;;;5069721;28;20031;-65
2023/12/15 04:17:16;;;;;;;2.25;1.73;;;6.30;99.90;;;;;;5054290;28;20036;-65
2023/12/15 04:19:42;;;;;;;2.67;1.90;;;6.30;99.90;;;;;;5053992;28;20032;-66
2023/12/15 04:22:08;;;;;;;2.60;2.10;;;6.20;99.90;;;;;;5054209;28;20032;-65
2023/12/15 04:24:33;;;;;;;2.72;2.17;;;6.20;99.80;;;;;;5053749;28;20029;-65
2023/12/15 04:26:59;;;;;;;3.55;2.05;;;6.20;99.70;;;;;;5054114;28;20143;-65
2023/12/15 04:29:24;;;;;;;3.05;2.55;;;6.20;99.80;;;;;;5054306;28;20029;-65
2023/12/15 04:31:50;;;;;;;2.97;2.33;;;6.20;99.70;;;;;;5053994;28;20068;-65
2023/12/15 04:34:15;;;;;;;3.90;2.80;;;6.20;99.50;;;;;;5053825;28;20032;-65
2023/12/15 04:36:41;;;;;;;4.30;2.75;;;6.20;99.70;;;;;;5053585;28;20029;-66
2023/12/15 04:39:07;;;;;;;3.22;2.67;;;6.10;99.70;;;;;;5054150;28;20061;-65
2023/12/15 04:41:33;;;;;;;4.68;3.28;;;6.20;99.80;;;;;;5053762;28;20027;-65
2023/12/15 04:43:59;;;;;;;5.32;2.88;;;6.10;99.80;;;;;;5053847;28;20037;-65
2023/12/15 04:46:26;;;;;;;4.18;2.78;;;6.20;99.90;;;;;;5053926;28;20037;-65
2023/12/15 04:48:53;;;;;;;4.05;2.88;;;6.20;99.90;;;;;;5053444;28;20037;-65
2023/12/15 04:51:18;;;;;;;5.07;3.20;;;6.20;99.80;;;;;;5053704;28;20466;-65
2023/12/15 04:53:45;;;;;;;4.93;2.90;;;6.20;99.70;;;;;;5053256;28;20032;-65
2023/12/15 04:56:11;;;;;;;4.63;3.00;;;6.20;99.60;;;;;;5053633;28;20470;-65
2023/12/15 04:58:37;;;;;;;4.40;3.08;;;6.20;99.70;;;;;;5052653;28;20080;-64
2023/12/15 05:01:03;;;;;;;4.85;2.97;;;6.20;99.70;;;;;;5053448;28;20056;-65
2023/12/15 05:03:33;;;;;;;3.72;2.90;;;6.20;99.70;;;;;;5068566;28;20033;-64
2023/12/15 05:05:59;;;;;;;3.55;2.83;;;6.20;99.70;;;;;;5073611;28;20029;-64
2023/12/15 05:08:25;;;;;;;4.05;2.75;;;6.20;99.60;;;;;;5073330;28;20041;-65
2023/12/15 05:10:50;;;;;;;4.55;2.92;;;6.20;99.30;;;;;;5072810;28;20031;-66
2023/12/15 05:13:16;;;;;;;5.47;2.88;;;6.20;99.40;;;;;;5073336;28;20058;-65
2023/12/15 05:15:42;;;;;;;3.58;2.85;;;6.10;99.60;;;;;;5072697;28;20358;-64
2023/12/15 05:18:07;;;;;;;3.72;2.72;;;6.20;99.70;;;;;;5072406;28;20123;-64
2023/12/15 05:20:38;;;;;;;3.67;2.50;;;6.20;99.30;;;;;;5072869;28;20389;-65
2023/12/15 05:23:04;;;;;;;4.20;2.25;;;6.20;99.00;;;;;;5073152;28;20445;-64
2023/12/15 05:25:30;;;;;;;2.95;2.42;;;6.20;98.50;;;;;;5073066;28;20117;-64
2023/12/15 05:27:56;;;;;;;3.42;2.70;;;6.20;98.20;;;;;;5072551;28;20032;-64
2023/12/15 05:30:21;;;;;;;4.57;2.42;;;6.10;98.40;;;;;;5073099;28;20025;-65
2023/12/15 05:32:47;;;;;;;3.40;2.80;;;6.20;98.50;;;;;;5072275;28;20043;-65
2023/12/15 05:35:13;;;;;;;3.85;2.60;;;6.10;98.60;;;;;;5073049;28;20469;-65
2023/12/15 05:37:39;;;;;;;4.25;2.92;;;6.10;98.80;;;;;;5072514;28;20114;-64
2023/12/15 05:40:05;;;;;;;3.90;2.70;;;6.10;98.80;;;;;;5072736;28;20020;-64
2023/12/15 05:42:30;;;;;;;3.70;3.13;;;6.10;98.90;;;;;;5055091;28;20558;-64
2023/12/15 05:44:56;;;;;;;5.72;2.92;;;6.10;99.00;;;;;;5035236;28;20115;-64
2023/12/15 05:47:22;;;;;;;4.53;3.70;;;6.20;99.00;;;;;;5042860;28;20330;-64
2023/12/15 05:49:47;;;;;;;6.55;3.35;;;6.10;99.00;;;;;;5032321;28;20088;-64
2023/12/15 05:52:14;;;;;;;4.25;3.38;;;6.10;99.10;;;;;;5032470;28;20022;-64
2023/12/15 05:54:40;;;;;;;3.85;2.90;;;6.10;99.20;;;;;;5032166;28;20047;-65
2023/12/15 05:57:06;;;;;;;4.88;3.60;;;6.10;99.20;;;;;;5032548;28;20083;-64
2023/12/15 05:59:32;;;;;;;5.15;3.15;;;6.10;99.40;;;;;;5031831;28;20045;-65
2023/12/15 06:01:57;;;;;;;4.15;3.35;;;6.10;99.30;;;;;;5031990;28;20025;-66
2023/12/15 06:04:24;;;;;;;5.18;3.35;;;6.10;99.50;;;;;;5032103;28;20529;-64
2023/12/15 06:06:50;;;;;;;3.80;2.83;;;6.10;99.50;;;;;;5036928;28;20541;-64
2023/12/15 06:09:16;;;;;;;5.20;3.53;;;6.10;99.60;;;;;;5044968;28;20064;-65
2023/12/15 06:11:42;;;;;;;5.18;3.20;;;6.10;99.50;;;;;;5031310;28;20459;-65
2023/12/15 06:14:09;;;;;;;4.53;3.50;;;6.10;99.60;;;;;;5032237;28;20048;-64
2023/12/15 06:16:35;;;;;;;6.10;3.60;;;6.10;99.40;;;;;;5032260;28;20025;-64
2023/12/15 06:19:01;;;;;;;5.57;3.67;;;6.10;99.30;;;;;;5031795;28;20116;-64
2023/12/15 06:21:27;;;;;;;4.60;3.47;;;6.10;99.20;;;;;;5032158;28;20029;-64
2023/12/15 06:23:54;;;;;;;6.38;3.42;;;6.10;99.30;;;;;;5031284;28;20390;-64
2023/12/15 06:26:24;;;;;;;4.68;3.38;;;6.10;99.60;;;;;;5031954;28;20018;-64
2023/12/15 06:28:50;;;;;;;3.88;3.10;;;6.10;99.70;;;;;;5031866;28;20056;-66
2023/12/15 06:31:16;;;;;;;4.10;3.40;;;6.20;99.90;;;;;;5031995;28;20056;-63
2023/12/15 06:33:42;;;;;;;4.95;3.75;;;6.20;99.60;;;;;;5031548;28;20029;-64
2023/12/15 06:36:09;;;;;;;3.97;2.90;;;6.20;99.60;;;;;;5032199;28;20033;-64
2023/12/15 06:38:45;;;;;;;6.20;4.05;;;6.20;99.60;;;;;;5032395;28;20114;-64
2023/12/15 06:41:11;;;;;;;4.50;3.40;;;6.20;99.60;;;;;;5031937;28;20033;-65
2023/12/15 06:43:45;;;;;;;5.68;3.55;;;6.20;99.70;;;;;;5031858;28;20128;-64
2023/12/15 06:46:11;;;;;;;5.65;3.65;;;6.20;99.70;;;;;;5032009;28;20053;-65
2023/12/15 06:48:37;;;;;;;5.07;3.80;;;6.20;99.50;;;;;;5031758;28;20075;-65
2023/12/15 06:51:04;;;;;;;6.30;3.72;;;6.20;99.30;;;;;;5031447;28;20030;-64
2023/12/15 06:53:30;;;;;;;5.38;3.88;;;6.20;99.20;;;;;;5031700;28;20025;-65
2023/12/15 06:55:55;;;;;;;5.13;4.07;;;6.20;99.00;;;;;;5052804;28;20020;-64
2023/12/15 06:58:21;;;;;;;4.75;3.70;;;6.20;99.00;;;;;;5071512;28;20358;-64
2023/12/15 07:00:47;;;;;;;4.60;3.80;;;6.20;99.10;;;;;;5055651;28;20045;-63
2023/12/15 07:03:12;;;;;;;7.95;3.78;;;6.20;99.50;;;;;;5051263;28;20040;-64
2023/12/15 07:05:38;;;;;;;5.38;4.07;;;6.20;99.90;;;;;;5051835;28;20039;-65
2023/12/15 07:08:04;;;;;;;5.28;4.20;;;6.20;99.90;;;;;;5051217;28;20089;-65
2023/12/15 07:10:30;;;;;;;7.32;4.65;;;6.10;99.90;;;;;;5052259;28;20406;-65
2023/12/15 07:12:56;;;;;;;6.68;4.97;;;6.00;99.90;;;;;;5051519;28;20025;-64
2023/12/15 07:15:22;;;;;;;8.38;4.78;;;6.00;99.90;;;;;;5051791;28;20087;-64
2023/12/15 07:17:48;;;;;;;9.27;5.25;;;5.90;99.90;;;;;;5051049;28;20120;-64
2023/12/15 07:20:14;;;;;;;7.13;5.28;;;5.90;99.90;;;;;;5051764;28;20076;-65
2023/12/15 07:22:39;;;;;;;7.78;5.47;;;5.90;99.90;;;;;;5051362;28;20021;-64
2023/12/15 07:25:05;;;;;;;7.45;5.53;;;5.80;99.90;;;;;;5050855;28;20344;-64
2023/12/15 07:27:31;;;;;;;13.88;6.00;;;5.80;99.90;;;;;;5051351;28;20116;-65
2023/12/15 07:29:57;;;;;;;8.07;6.43;;;5.80;99.90;;;;;;5050956;28;20061;-65
2023/12/15 07:32:22;;;;;;;7.25;5.75;;;5.70;99.90;;;;;;5051412;28;20525;-66
2023/12/15 07:34:48;;;;;;;9.95;6.80;;;5.70;99.90;;;;;;5051023;28;20031;-65
2023/12/15 07:37:13;;;;;;;8.93;6.35;;;5.70;99.90;;;;;;5051238;28;20017;-64
2023/12/15 07:39:39;;;;;;;8.30;5.55;;;5.80;99.90;;;;;;5049894;28;20386;-64
2023/12/15 07:42:05;;;;;;;9.85;5.25;;;5.70;99.90;;;;;;5054377;28;20063;-64
2023/12/15 07:44:30;;;;;;;7.25;5.72;;;5.70;99.90;;;;;;5055044;28;20068;-64
2023/12/15 07:46:56;;;;;;;7.60;6.18;;;5.80;99.90;;;;;;5054953;28;20088;-64
2023/12/15 07:49:22;;;;;;;7.28;4.82;;;5.70;99.90;;;;;;5055077;28;20056;-63
2023/12/15 07:51:49;;;;;;;7.82;5.00;;;5.70;99.90;;;;;;5054228;28;20083;-64
2023/12/15 07:54:16;;;;;;;7.05;5.05;;;5.70;99.90;;;;;;5054819;28;20025;-64
2023/12/15 07:56:41;;;;;;;6.72;5.13;;;5.70;99.90;;;;;;5053454;28;20417;-64
2023/12/15 07:59:08;;;;;;;6.75;4.93;;;5.70;99.90;;;;;;5054154;28;20049;-64
2023/12/15 08:01:34;;;;;;;6.88;4.82;;;5.80;99.90;;;;;;5054470;28;20056;-64
2023/12/15 08:04:00;;;;;;;9.13;5.40;;;5.80;99.90;;;;;;5053920;28;20386;-65
2023/12/15 08:06:25;;;;;;;7.63;4.50;;;5.80;99.90;;;;;;5054830;28;20024;-65
2023/12/15 08:08:52;;;;;;;5.20;4.15;;;5.80;99.90;;;;;;5054489;28;20403;-65
2023/12/15 08:11:18;;;;;;;4.53;3.40;;;5.80;99.90;;;;;;5054692;28;20118;-64
2023/12/15 08:13:44;;;;;;;3.97;3.20;;;5.80;99.90;;;;;;5054562;28;20029;-65
2023/12/15 08:16:11;;;;;;;4.00;3.38;;;5.80;99.90;;;;;;5054076;28;20057;-64
2023/12/15 08:18:37;;;;;;;7.28;3.80;;;5.80;99.90;;;;;;5054462;28;20029;-65
2023/12/15 08:21:03;;;;;;;5.40;4.18;;;5.80;99.90;;;;;;5054076;28;20036;-64
2023/12/15 08:23:29;;;;;;;6.57;4.15;;;5.80;99.90;;;;;;5054292;28;20032;-64
2023/12/15 08:25:54;;;;;;;6.07;4.18;;;5.80;99.90;;;;;;5053952;28;20079;-65
2023/12/15 08:28:20;;;;;;;7.03;4.28;;;5.80;99.90;;;;;;5054327;28;20032;-65
2023/12/15 08:30:49;;;;;;;5.50;4.05;;;5.80;99.90;;;;;;5054446;28;20469;-65
2023/12/15 08:33:16;;;;;;;6.97;3.97;;;5.80;99.90;;;;;;5054475;28;20095;-64
2023/12/15 08:35:42;;;;;;;4.70;3.78;;;5.80;99.90;;;;;;5054338;28;20025;-65
2023/12/15 08:38:08;;;;;;;6.47;3.95;;;5.80;99.90;;;;;;5053664;28;20032;-64
2023/12/15 08:40:33;;;;;;;5.45;3.67;;;5.80;99.90;;;;;;5054383;28;20040;-64
2023/12/15 08:42:59;;;;;;;5.60;3.50;;;5.80;99.90;;;;;;5053447;28;20029;-64
2023/12/15 08:45:25;;;;;;;5.57;2.95;;;5.80;99.90;;;;;;5053755;28;20025;-63
2023/12/15 08:47:50;;;;;;;3.60;2.78;;;5.80;99.90;;;;;;5053272;28;20056;-66
2023/12/15 08:50:16;;;;;;;5.30;2.78;;;5.80;99.90;;;;;;5053919;28;20504;-65
2023/12/15 08:52:43;;;;;;;3.92;2.83;;;5.70;99.90;;;;;;5052709;28;20480;-65
2023/12/15 08:55:09;;;;;;;3.05;2.60;;;5.70;99.90;;;;;;5052846;28;20110;-65
2023/12/15 08:57:35;;;;;;;3.63;2.65;;;5.70;99.90;;;;;;5053793;28;20493;-65
2023/12/15 09:00:03;;;;;;;4.45;3.13;;;5.70;99.90;;;;;;5053653;28;20120;-65
2023/12/15 09:02:28;;;;;;;5.22;3.53;;;5.70;99.90;;;;;;5053535;28;20404;-65
2023/12/15 09:04:54;;;;;;;5.07;3.20;;;5.60;99.90;;;;;;5054179;28;20033;-65
2023/12/15 09:07:20;;;;;;;4.70;3.70;;;5.60;99.90;;;;;;5072988;28;20086;-65
2023/12/15 09:09:45;;;;;;;5.45;3.20;;;5.70;99.90;;;;;;5073129;28;20028;-65
2023/12/15 09:12:11;;;;;;;4.45;3.22;;;5.70;99.90;;;;;;5073164;28;20056;-65
2023/12/15 09:14:38;;;;;;;3.97;2.90;;;5.70;99.90;;;;;;5073305;28;20039;-64
2023/12/15 09:17:05;;;;;;;3.97;2.97;;;5.70;99.90;;;;;;5073097;28;20028;-66
2023/12/15 09:19:31;;;;;;;3.85;3.05;;;5.70;99.90;;;;;;5073140;28;20028;-65
2023/12/15 09:21:57;;;;;;;4.25;3.28;;;5.70;99.90;;;;;;5072774;28;20037;-64
2023/12/15 09:24:23;;;;;;;4.30;2.97;;;5.70;99.90;;;;;;5073218;28;20040;-64
2023/12/15 09:26:48;;;;;;;4.70;3.20;;;5.70;99.90;;;;;;5073115;28;20070;-65
2023/12/15 09:29:15;;;;;;;5.72;3.45;;;5.70;99.90;;;;;;5072229;28;20032;-64
2023/12/15 09:31:41;;;;;;;4.18;3.03;;;5.70;99.90;;;;;;5072654;28;20361;-64
2023/12/15 09:34:07;;;;;;;4.47;3.20;;;5.60;99.90;;;;;;5072370;28;20101;-65
2023/12/15 09:36:34;;;;;;;5.43;3.25;;;5.60;99.90;;;;;;5072840;28;20078;-64
2023/12/15 09:39:00;;;;;;;5.40;2.88;;;5.70;99.90;;;;;;5072225;28;20025;-65
2023/12/15 09:41:27;;;;;;;3.88;2.85;;;5.70;99.90;;;;;;5072648;28;20021;-65
2023/12/15 09:43:53;;;;;;;4.45;3.03;;;5.70;99.90;;;;;;5072624;28;20028;-65
2023/12/15 09:46:20;;;;;;;3.97;3.17;;;5.70;99.90;;;;;;5072500;28;20028;-64
2023/12/15 09:48:47;;;;;;;5.57;3.50;;;5.70;99.90;;;;;;5072295;28;20024;-64
2023/12/15 09:51:22;;;;;;;5.50;3.20;;;5.70;99.90;;;;;;5072156;28;20032;-65
2023/12/15 09:53:49;;;;;;;4.60;3.35;;;5.70;99.90;;;;;;5072329;28;20418;-65
2023/12/15 09:56:16;;;;;;;4.65;2.70;;;5.70;99.90;;;;;;5057346;28;20381;-64
2023/12/15 09:58:42;;;;;;;4.45;3.15;;;5.70;99.90;;;;;;5052199;28;20053;-64
2023/12/15 10:01:09;;;;;;;6.13;3.60;;;5.70;99.90;;;;;;5051742;28;20461;-64
2023/12/15 10:03:35;;;;;;;6.03;3.85;;;5.70;99.90;;;;;;5051872;28;20381;-64
2023/12/15 10:06:00;;;;;;;5.22;3.67;;;5.60;99.90;;;;;;5051436;28;20029;-63
2023/12/15 10:08:45;;;;;;;4.32;3.42;;;5.60;99.90;;;;;;5052104;28;20025;-65
2023/12/15 10:11:11;;;;;;;5.03;3.72;;;5.60;99.90;;;;;;5051765;28;20029;-65
2023/12/15 10:13:40;;;;;;;6.32;3.90;;;5.60;99.90;;;;;;5051880;28;20128;-65
2023/12/15 10:16:06;;;;;;;6.50;3.90;;;5.60;99.90;;;;;;5051678;28;20021;-64
2023/12/15 10:18:32;;;;;;;4.82;3.95;;;5.60;99.90;;;;;;5052074;28;20446;-64
2023/12/15 10:20:58;;;;;;;6.35;4.00;;;5.60;99.90;;;;;;5051198;28;20074;-65
2023/12/15 10:23:31;;;;;;;6.00;4.43;;;5.60;99.90;;;;;;5051562;28;20036;-64
2023/12/15 10:26:04;;;;;;;6.10;4.80;;;5.60;99.90;;;;;;5051294;28;20595;-65
2023/12/15 10:28:38;;;;;;;9.27;4.63;;;5.60;99.90;;;;;;5051771;28;20037;-64
2023/12/15 10:31:05;;;;;;;9.77;5.72;;;5.60;99.90;;;;;;5051474;28;20116;-64
2023/12/15 10:33:32;;;;;;;8.95;6.40;;;5.60;99.90;;;;;;5051883;28;20422;-65
2023/12/15 10:36:00;;;;;;;9.32;6.53;;;5.60;99.90;;;;;;5051629;28;20024;-65
2023/12/15 10:38:27;;;;;;;9.15;7.03;;;5.60;99.90;;;;;;5051758;28;20076;-64
2023/12/15 10:40:54;;;;;;;8.30;6.55;;;5.60;99.90;;;;;;5051678;28;20120;-64
2023/12/15 10:43:21;;;;;;;13.02;7.18;;;5.60;99.90;;;;;;5051177;28;20041;-64
2023/12/15 10:45:47;;;;;;;9.35;7.03;;;5.60;99.90;;;;;;5051701;28;20032;-65
2023/12/15 10:48:14;;;;;;;8.57;7.05;;;5.60;99.90;;;;;;5050990;28;20040;-65
2023/12/15 10:50:42;;;;;;;9.35;6.35;;;5.50;99.90;;;;;;5051688;28;20025;-64
2023/12/15 10:53:15;;;;;;;9.98;5.88;;;5.50;99.90;;;;;;5051047;28;20477;-64
2023/12/15 10:55:43;;;;;;;8.48;5.93;;;5.40;99.90;;;;;;5051600;28;20033;-65
2023/12/15 10:58:11;;;;;;;8.98;6.35;;;5.50;99.90;;;;;;5050799;28;20029;-65
2023/12/15 11:00:38;;;;;;;7.65;6.05;;;5.40;99.90;;;;;;5066687;28;20078;-65
2023/12/15 11:03:05;;;;;;;7.47;5.57;;;5.30;99.90;;;;;;5070973;28;20105;-65
2023/12/15 11:05:32;;;;;;;8.05;6.10;;;5.30;99.90;;;;;;5069990;28;20365;-65
2023/12/15 11:07:59;;;;;;;8.70;6.50;;;5.30;99.90;;;;;;5071443;28;20036;-63
2023/12/15 11:10:25;;;;;;;7.95;6.25;;;5.40;99.90;;;;;;5071404;28;20493;-64
2023/12/15 11:12:52;;;;;;;8.18;6.30;;;5.30;99.90;;;;;;5071387;28;20458;-64
2023/12/15 11:15:19;;;;;;;9.70;6.65;;;5.30;99.90;;;;;;5071702;28;20099;-64
2023/12/15 11:17:55;;;;;;;10.63;6.78;;;5.30;99.90;;;;;;5075153;28;20114;-64
2023/12/15 11:20:20;;;;;;;9.88;7.38;;;5.30;99.90;;;;;;5075017;28;20028;-64
2023/12/15 11:22:57;;;;;;;13.48;7.57;;;5.20;99.90;;;;;;5075503;28;20044;-64
2023/12/15 11:25:46;;;;;;;11.35;7.18;;;5.20;99.90;;;;;;5074802;28;20134;-65
2023/12/15 11:28:15;;;;;;;11.57;8.32;;;5.20;99.90;;;;;;5071802;28;20123;-64
2023/12/15 11:30:54;;;;;;;11.88;8.00;;;5.30;99.90;;;;;;5075083;28;20035;-64
2023/12/15 11:33:59;;;;;;;11.20;7.80;;;5.20;99.90;;;;;;5074693;28;20036;-64
2023/12/15 11:36:18;;;;;;;11.70;8.85;;;5.30;99.90;;;;;;5073040;28;20032;-65
2023/12/15 11:38:50;;;;;;;12.65;8.32;;;5.30;99.90;;;;;;5074921;28;20044;-65
2023/12/15 11:41:18;;;;;;;12.75;9.48;;;5.30;99.90;;;;;;5074160;28;20465;-65
2023/12/15 11:43:44;;;;;;;13.65;9.68;;;5.30;99.90;;;;;;5074423;28;20054;-65
2023/12/15 11:46:11;;;;;;;14.43;9.18;;;5.30;99.90;;;;;;5074219;28;20024;-65
2023/12/15 11:48:36;;;;;;;16.35;10.02;;;5.30;99.90;;;;;;5074360;28;20449;-65
2023/12/15 11:51:02;;;;;;;13.18;9.70;;;5.30;99.90;;;;;;5073313;28;20052;-65
2023/12/15 11:53:29;;;;;;;12.88;8.63;;;5.30;99.90;;;;;;5059166;28;20377;-64
2023/12/15 11:55:56;;;;;;;16.60;9.52;;;5.30;99.90;;;;;;5054599;28;20031;-64
2023/12/15 11:58:22;;;;;;;14.30;9.35;;;5.30;99.90;;;;;;5053907;28;20045;-64
2023/12/15 12:00:48;;;;;;;11.80;8.70;;;5.30;99.90;;;;;;5054956;28;20032;-64
2023/12/15 12:03:15;;;;;;;13.95;9.73;;;5.30;99.90;;;;;;5054245;28;20488;-64
2023/12/15 12:05:42;;;;;;;12.07;9.48;;;5.20;99.90;;;;;;5055029;28;20033;-65
2023/12/15 12:08:09;;;;;;;12.63;8.93;;;5.30;99.90;;;;;;5054100;28;20044;-66
2023/12/15 12:10:38;;;;;;;12.45;9.20;;;5.30;99.90;;;;;;5054368;28;20097;-64
2023/12/15 12:13:07;;;;;;;16.30;10.02;;;5.20;99.90;;;;;;5054177;28;20406;-65
2023/12/15 12:15:47;;;;;;;14.85;9.43;;;5.20;99.90;;;;;;5054523;28;20162;-65
2023/12/15 12:18:13;;;;;;;12.85;9.27;;;5.20;99.90;;;;;;5054023;28;20042;-65
2023/12/15 12:20:41;;;;;;;16.67;9.35;;;5.20;99.90;;;;;;5054461;28;20029;-65
2023/12/15 12:23:07;;;;;;;14.10;9.60;;;5.20;99.90;;;;;;5053896;28;20021;-65
2023/12/15 12:25:32;;;;;;;13.02;8.90;;;5.10;99.90;;;;;;5054334;28;20024;-65
2023/12/15 12:27:58;;;;;;;10.85;7.80;;;5.10;99.90;;;;;;5053845;28;20040;-65
2023/12/15 12:30:24;;;;;;;13.82;8.48;;;5.10;99.90;;;;;;5053688;28;20021;-64
2023/12/15 12:32:49;;;;;;;11.13;8.30;;;5.00;99.90;;;;;;5053888;28;20428;-64
2023/12/15 12:35:15;;;;;;;11.63;8.13;;;5.00;99.90;;;;;;5053502;28;20069;-65
2023/12/15 12:37:41;;;;;;;13.85;9.00;;;5.00;99.90;;;;;;5053710;28;20072;-65
2023/12/15 12:40:07;;;;;;;13.45;7.80;;;4.90;99.90;;;;;;5053688;28;20407;-64
2023/12/15 12:42:33;;;;;;;10.02;7.47;;;4.90;99.90;;;;;;5053795;28;20021;-64
2023/12/15 12:44:59;;;;;;;10.38;7.50;;;4.90;99.90;;;;;;5053703;28;20436;-64
2023/12/15 12:47:25;;;;;;;10.45;7.28;;;4.90;99.90;;;;;;5053349;28;20025;-64
2023/12/15 12:49:52;;;;;;;11.70;7.28;;;4.80;99.90;;;;;;5053669;28;20025;-64
2023/12/15 12:52:18;;;;;;;11.02;6.80;;;4.90;99.90;;;;;;5052066;28;20067;-65